sensor_id;sensor_type;location;lat;lon;timestamp;pressure;altitude;pressure_sealevel;temperature;humidity
51807;BME280;37865;51.304;9.536;2023-09-19T00:00:36;99164.06;;;16.23;100.00
51807;BME280;37865;51.304;9.536;2023-09-19T00:03:01;99155.72;;;16.28;100.00
51807;BME280;37865;51.304;9.536;2023-09-19T00:05:26;99163.56;;;16.34;100.00
51807;BME280;37865;51.304;9.536;2023-09-19T00:07:54;99163.16;;;16.41;100.00
51807;BME280;37865;51.304;9.536;2023-09-19T00:10:22;99165.09;;;16.40;100.00
51807;BME280;37865;51.304;9.536;2023-09-19T00:12:49;99164.28;;;16.40;100.00
51807;BME280;37865;51.304;9.536;2023-09-19T00:15:16;99169.91;;;16.35;100.00
51807;BME280;37865;51.304;9.536;2023-09-19T00:17:42;99173.75;;;16.34;100.00
51807;BME280;37865;51.304;9.536;2023-09-19T00:20:08;99174.88;;;16.33;100.00
51807;BME280;37865;51.304;9.536;2023-09-19T00:22:40;99175.19;;;16.31;100.00
51807;BME280;37865;51.304;9.536;2023-09-19T00:25:07;99171.00;;;16.34;100.00
51807;BME280;37865;51.304;9.536;2023-09-19T00:27:33;99167.94;;;16.35;100.00
51807;BME280;37865;51.304;9.536;2023-09-19T00:29:58;99174.44;;;16.39;100.00
51807;BME280;37865;51.304;9.536;2023-09-19T00:32:25;99181.00;;;16.43;100.00
51807;BME280;37865;51.304;9.536;2023-09-19T00:34:50;99180.88;;;16.48;100.00
51807;BME280;37865;51.304;9.536;2023-09-19T00:37:15;99172.56;;;16.53;100.00
51807;BME280;37865;51.304;9.536;2023-09-19T00:39:42;99178.06;;;16.53;100.00
51807;BME280;37865;51.304;9.536;2023-09-19T00:42:08;99182.75;;;16.53;100.00
51807;BME280;37865;51.304;9.536;2023-09-19T00:44:33;99186.59;;;16.52;100.00
51807;BME280;37865;51.304;9.536;2023-09-19T00:47:00;99185.56;;;16.48;100.00
51807;BME280;37865;51.304;9.536;2023-09-19T00:49:25;99187.75;;;16.51;100.00
51807;BME280;37865;51.304;9.536;2023-09-19T00:51:50;99192.94;;;16.52;100.00
51807;BME280;37865;51.304;9.536;2023-09-19T00:54:16;99186.91;;;16.50;100.00
51807;BME280;37865;51.304;9.536;2023-09-19T00:56:43;99185.56;;;16.48;100.00
51807;BME280;37865;51.304;9.536;2023-09-19T00:59:09;99193.03;;;16.47;100.00
51807;BME280;37865;51.304;9.536;2023-09-19T01:01:34;99188.06;;;16.49;100.00
51807;BME280;37865;51.304;9.536;2023-09-19T01:04:00;99194.44;;;16.45;100.00
51807;BME280;37865;51.304;9.536;2023-09-19T01:06:25;99196.97;;;16.41;100.00
51807;BME280;37865;51.304;9.536;2023-09-19T01:08:51;99199.31;;;16.48;100.00
51807;BME280;37865;51.304;9.536;2023-09-19T01:11:28;99208.41;;;16.48;100.00
51807;BME280;37865;51.304;9.536;2023-09-19T01:16:55;99205.97;;;16.47;100.00
51807;BME280;37865;51.304;9.536;2023-09-19T01:22:06;99214.63;;;16.40;100.00
51807;BME280;37865;51.304;9.536;2023-09-19T01:24:50;99216.88;;;16.38;100.00
51807;BME280;37865;51.304;9.536;2023-09-19T01:29:48;99224.94;;;16.35;100.00
51807;BME280;37865;51.304;9.536;2023-09-19T01:32:15;99228.19;;;16.37;100.00
51807;BME280;37865;51.304;9.536;2023-09-19T01:37:11;99233.78;;;16.32;100.00
51807;BME280;37865;51.304;9.536;2023-09-19T01:39:36;99242.66;;;16.29;100.00
51807;BME280;37865;51.304;9.536;2023-09-19T01:47:13;99239.56;;;16.17;100.00
51807;BME280;37865;51.304;9.536;2023-09-19T01:52:31;99246.72;;;16.18;100.00
51807;BME280;37865;51.304;9.536;2023-09-19T01:55:03;99246.50;;;16.14;100.00
51807;BME280;37865;51.304;9.536;2023-09-19T01:57:42;99257.00;;;16.12;100.00
51807;BME280;37865;51.304;9.536;2023-09-19T02:00:11;99258.94;;;16.12;100.00
51807;BME280;37865;51.304;9.536;2023-09-19T02:02:37;99255.03;;;16.13;100.00
51807;BME280;37865;51.304;9.536;2023-09-19T02:05:03;99259.25;;;16.10;100.00
51807;BME280;37865;51.304;9.536;2023-09-19T02:07:29;99260.66;;;16.07;100.00
51807;BME280;37865;51.304;9.536;2023-09-19T02:09:56;99263.78;;;16.01;100.00
51807;BME280;37865;51.304;9.536;2023-09-19T02:12:22;99262.97;;;16.00;100.00
51807;BME280;37865;51.304;9.536;2023-09-19T02:14:47;99269.09;;;15.97;100.00
51807;BME280;37865;51.304;9.536;2023-09-19T02:17:12;99274.66;;;15.92;100.00
51807;BME280;37865;51.304;9.536;2023-09-19T02:19:38;99274.97;;;15.91;100.00
51807;BME280;37865;51.304;9.536;2023-09-19T02:22:04;99287.69;;;15.87;100.00
51807;BME280;37865;51.304;9.536;2023-09-19T02:24:36;99283.81;;;15.88;100.00
51807;BME280;37865;51.304;9.536;2023-09-19T02:27:01;99286.06;;;15.86;100.00
51807;BME280;37865;51.304;9.536;2023-09-19T02:29:28;99281.16;;;15.83;100.00
51807;BME280;37865;51.304;9.536;2023-09-19T02:31:54;99282.28;;;15.82;100.00
51807;BME280;37865;51.304;9.536;2023-09-19T02:34:21;99292.75;;;15.80;100.00
51807;BME280;37865;51.304;9.536;2023-09-19T02:36:46;99289.50;;;15.78;100.00
51807;BME280;37865;51.304;9.536;2023-09-19T02:39:11;99292.81;;;15.75;100.00
51807;BME280;37865;51.304;9.536;2023-09-19T02:41:36;99297.53;;;15.74;100.00
51807;BME280;37865;51.304;9.536;2023-09-19T02:44:02;99293.75;;;15.70;100.00
51807;BME280;37865;51.304;9.536;2023-09-19T02:46:27;99288.25;;;15.70;100.00
51807;BME280;37865;51.304;9.536;2023-09-19T02:48:52;99292.94;;;15.70;100.00
51807;BME280;37865;51.304;9.536;2023-09-19T02:51:19;99302.50;;;15.72;100.00
51807;BME280;37865;51.304;9.536;2023-09-19T02:53:45;99315.44;;;15.72;100.00
51807;BME280;37865;51.304;9.536;2023-09-19T02:56:12;99304.13;;;15.73;100.00
51807;BME280;37865;51.304;9.536;2023-09-19T02:58:38;99301.16;;;15.70;100.00
51807;BME280;37865;51.304;9.536;2023-09-19T03:01:07;99309.41;;;15.70;100.00
51807;BME280;37865;51.304;9.536;2023-09-19T03:03:33;99319.06;;;15.67;100.00
51807;BME280;37865;51.304;9.536;2023-09-19T03:05:58;99322.44;;;15.64;100.00
51807;BME280;37865;51.304;9.536;2023-09-19T03:08:23;99319.16;;;15.62;100.00
51807;BME280;37865;51.304;9.536;2023-09-19T03:10:49;99318.63;;;15.60;100.00
51807;BME280;37865;51.304;9.536;2023-09-19T03:13:15;99329.09;;;15.58;99.87
51807;BME280;37865;51.304;9.536;2023-09-19T03:15:41;99331.31;;;15.56;100.00
51807;BME280;37865;51.304;9.536;2023-09-19T03:18:08;99328.88;;;15.55;100.00
51807;BME280;37865;51.304;9.536;2023-09-19T03:20:33;99331.94;;;15.53;98.60
51807;BME280;37865;51.304;9.536;2023-09-19T03:22:59;99331.94;;;15.53;99.41
51807;BME280;37865;51.304;9.536;2023-09-19T03:25:25;99333.66;;;15.49;97.55
51807;BME280;37865;51.304;9.536;2023-09-19T03:27:50;99339.44;;;15.48;97.42
51807;BME280;37865;51.304;9.536;2023-09-19T03:30:16;99331.47;;;15.46;98.80
51807;BME280;37865;51.304;9.536;2023-09-19T03:32:45;99339.22;;;15.44;98.88
51807;BME280;37865;51.304;9.536;2023-09-19T03:35:11;99324.91;;;15.42;97.85
51807;BME280;37865;51.304;9.536;2023-09-19T03:37:39;99334.56;;;15.40;98.43
51807;BME280;37865;51.304;9.536;2023-09-19T03:40:04;99341.19;;;15.39;98.44
51807;BME280;37865;51.304;9.536;2023-09-19T03:42:30;99331.91;;;15.35;98.00
51807;BME280;37865;51.304;9.536;2023-09-19T03:44:55;99341.03;;;15.30;99.10
51807;BME280;37865;51.304;9.536;2023-09-19T03:47:21;99339.16;;;15.25;99.29
51807;BME280;37865;51.304;9.536;2023-09-19T03:49:47;99348.81;;;15.23;98.98
51807;BME280;37865;51.304;9.536;2023-09-19T03:52:12;99346.88;;;15.23;99.26
51807;BME280;37865;51.304;9.536;2023-09-19T03:54:37;99341.38;;;15.23;99.44
51807;BME280;37865;51.304;9.536;2023-09-19T03:57:02;99350.75;;;15.22;99.59
51807;BME280;37865;51.304;9.536;2023-09-19T03:59:29;99347.75;;;15.19;100.00
51807;BME280;37865;51.304;9.536;2023-09-19T04:01:54;99350.81;;;15.17;100.00
51807;BME280;37865;51.304;9.536;2023-09-19T04:04:22;99355.22;;;15.18;100.00
51807;BME280;37865;51.304;9.536;2023-09-19T04:06:49;99355.72;;;15.20;100.00
51807;BME280;37865;51.304;9.536;2023-09-19T04:09:15;99349.31;;;15.25;100.00
51807;BME280;37865;51.304;9.536;2023-09-19T04:11:40;99351.50;;;15.28;100.00
51807;BME280;37865;51.304;9.536;2023-09-19T04:14:05;99358.03;;;15.32;100.00
51807;BME280;37865;51.304;9.536;2023-09-19T04:16:30;99361.00;;;15.36;100.00
51807;BME280;37865;51.304;9.536;2023-09-19T04:18:55;99361.50;;;15.43;100.00
51807;BME280;37865;51.304;9.536;2023-09-19T04:21:20;99366.94;;;15.48;99.74
51807;BME280;37865;51.304;9.536;2023-09-19T04:23:46;99363.56;;;15.51;99.76
51807;BME280;37865;51.304;9.536;2023-09-19T04:26:11;99366.53;;;15.54;99.35
51807;BME280;37865;51.304;9.536;2023-09-19T04:28:37;99361.28;;;15.58;97.86
51807;BME280;37865;51.304;9.536;2023-09-19T04:31:03;99368.91;;;15.61;97.67
51807;BME280;37865;51.304;9.536;2023-09-19T04:33:28;99374.66;;;15.64;97.35
51807;BME280;37865;51.304;9.536;2023-09-19T04:35:54;99366.09;;;15.66;96.76
51807;BME280;37865;51.304;9.536;2023-09-19T04:38:19;99379.84;;;15.66;95.96
51807;BME280;37865;51.304;9.536;2023-09-19T04:40:45;99366.63;;;15.68;96.15
51807;BME280;37865;51.304;9.536;2023-09-19T04:43:10;99373.22;;;15.67;95.73
51807;BME280;37865;51.304;9.536;2023-09-19T04:45:35;99368.53;;;15.67;94.82
51807;BME280;37865;51.304;9.536;2023-09-19T04:48:00;99369.38;;;15.68;93.78
51807;BME280;37865;51.304;9.536;2023-09-19T04:50:26;99369.59;;;15.71;94.39
51807;BME280;37865;51.304;9.536;2023-09-19T04:52:52;99380.28;;;15.73;93.81
51807;BME280;37865;51.304;9.536;2023-09-19T04:55:18;99377.78;;;15.76;93.31
51807;BME280;37865;51.304;9.536;2023-09-19T05:00:11;99373.81;;;15.82;92.01
51807;BME280;37865;51.304;9.536;2023-09-19T05:02:38;99365.56;;;15.82;92.07
51807;BME280;37865;51.304;9.536;2023-09-19T05:05:03;99377.41;;;15.83;91.80
51807;BME280;37865;51.304;9.536;2023-09-19T05:07:29;99376.56;;;15.82;90.91
51807;BME280;37865;51.304;9.536;2023-09-19T05:09:55;99375.44;;;15.83;91.06
51807;BME280;37865;51.304;9.536;2023-09-19T05:12:20;99377.97;;;15.80;91.63
51807;BME280;37865;51.304;9.536;2023-09-19T05:14:45;99387.13;;;15.75;91.13
51807;BME280;37865;51.304;9.536;2023-09-19T05:17:11;99380.88;;;15.70;90.91
51807;BME280;37865;51.304;9.536;2023-09-19T05:19:36;99379.53;;;15.67;90.85
51807;BME280;37865;51.304;9.536;2023-09-19T05:22:01;99389.72;;;15.67;89.87
51807;BME280;37865;51.304;9.536;2023-09-19T05:24:29;99395.22;;;15.67;89.70
51807;BME280;37865;51.304;9.536;2023-09-19T05:26:54;99388.09;;;15.66;90.07
51807;BME280;37865;51.304;9.536;2023-09-19T05:29:20;99395.50;;;15.65;90.44
51807;BME280;37865;51.304;9.536;2023-09-19T05:31:45;99405.69;;;15.65;91.04
51807;BME280;37865;51.304;9.536;2023-09-19T05:34:10;99400.19;;;15.65;90.16
51807;BME280;37865;51.304;9.536;2023-09-19T05:36:36;99393.59;;;15.66;90.49
51807;BME280;37865;51.304;9.536;2023-09-19T05:39:01;99410.09;;;15.66;90.89
51807;BME280;37865;51.304;9.536;2023-09-19T05:41:26;99416.69;;;15.65;90.21
51807;BME280;37865;51.304;9.536;2023-09-19T05:43:52;99416.41;;;15.66;91.00
51807;BME280;37865;51.304;9.536;2023-09-19T05:46:17;99424.66;;;15.66;90.72
51807;BME280;37865;51.304;9.536;2023-09-19T05:48:42;99425.44;;;15.67;89.22
51807;BME280;37865;51.304;9.536;2023-09-19T05:51:09;99429.53;;;15.69;89.76
51807;BME280;37865;51.304;9.536;2023-09-19T05:53:34;99438.91;;;15.68;89.82
51807;BME280;37865;51.304;9.536;2023-09-19T05:56:00;99435.34;;;15.68;90.30
51807;BME280;37865;51.304;9.536;2023-09-19T05:58:26;99435.66;;;15.66;90.23
51807;BME280;37865;51.304;9.536;2023-09-19T06:00:51;99437.56;;;15.66;89.58
51807;BME280;37865;51.304;9.536;2023-09-19T06:03:17;99449.38;;;15.66;89.08
51807;BME280;37865;51.304;9.536;2023-09-19T06:05:43;99456.81;;;15.66;89.22
51807;BME280;37865;51.304;9.536;2023-09-19T06:08:11;99461.16;;;15.67;89.02
51807;BME280;37865;51.304;9.536;2023-09-19T06:10:36;99464.22;;;15.65;88.38
51807;BME280;37865;51.304;9.536;2023-09-19T06:13:02;99474.91;;;15.67;88.24
51807;BME280;37865;51.304;9.536;2023-09-19T06:15:31;99473.00;;;15.67;88.24
51807;BME280;37865;51.304;9.536;2023-09-19T06:17:58;99480.94;;;15.69;87.83
51807;BME280;37865;51.304;9.536;2023-09-19T06:20:24;99487.25;;;15.69;86.99
51807;BME280;37865;51.304;9.536;2023-09-19T06:22:50;99488.00;;;15.75;87.12
51807;BME280;37865;51.304;9.536;2023-09-19T06:25:16;99494.84;;;15.77;87.40
51807;BME280;37865;51.304;9.536;2023-09-19T06:27:51;99497.31;;;15.79;86.88
51807;BME280;37865;51.304;9.536;2023-09-19T06:30:19;99501.69;;;15.80;86.23
51807;BME280;37865;51.304;9.536;2023-09-19T06:32:44;99513.22;;;15.82;83.92
51807;BME280;37865;51.304;9.536;2023-09-19T06:35:10;99511.19;;;15.87;84.50
51807;BME280;37865;51.304;9.536;2023-09-19T06:37:36;99522.72;;;15.89;83.36
51807;BME280;37865;51.304;9.536;2023-09-19T06:40:03;99527.66;;;15.92;82.26
51807;BME280;37865;51.304;9.536;2023-09-19T06:42:30;99535.31;;;15.95;80.95
51807;BME280;37865;51.304;9.536;2023-09-19T06:44:55;99534.19;;;15.96;79.40
51807;BME280;37865;51.304;9.536;2023-09-19T06:47:21;99536.56;;;16.03;79.51
51807;BME280;37865;51.304;9.536;2023-09-19T06:49:46;99535.97;;;16.06;79.07
51807;BME280;37865;51.304;9.536;2023-09-19T06:52:11;99542.75;;;16.14;78.63
51807;BME280;37865;51.304;9.536;2023-09-19T06:54:37;99548.47;;;16.17;77.72
51807;BME280;37865;51.304;9.536;2023-09-19T06:57:02;99547.59;;;16.22;77.40
51807;BME280;37865;51.304;9.536;2023-09-19T06:59:28;99562.97;;;16.23;75.76
51807;BME280;37865;51.304;9.536;2023-09-19T07:01:53;99547.59;;;16.22;75.01
51807;BME280;37865;51.304;9.536;2023-09-19T07:04:18;99557.25;;;16.19;73.51
51807;BME280;37865;51.304;9.536;2023-09-19T07:06:50;99552.78;;;16.23;73.51
51807;BME280;37865;51.304;9.536;2023-09-19T07:09:16;99553.31;;;16.25;73.23
51807;BME280;37865;51.304;9.536;2023-09-19T07:11:41;99564.56;;;16.29;72.77
51807;BME280;37865;51.304;9.536;2023-09-19T07:14:07;99560.09;;;16.33;72.52
51807;BME280;37865;51.304;9.536;2023-09-19T07:16:33;99553.47;;;16.34;71.36
51807;BME280;37865;51.304;9.536;2023-09-19T07:18:58;99554.88;;;16.31;70.82
51807;BME280;37865;51.304;9.536;2023-09-19T07:21:24;99561.13;;;16.37;71.53
51807;BME280;37865;51.304;9.536;2023-09-19T07:23:49;99558.22;;;16.47;72.21
51807;BME280;37865;51.304;9.536;2023-09-19T07:26:15;99564.19;;;16.54;72.59
51807;BME280;37865;51.304;9.536;2023-09-19T07:28:40;99552.06;;;16.55;71.79
51807;BME280;37865;51.304;9.536;2023-09-19T07:31:05;99560.13;;;16.51;71.48
51807;BME280;37865;51.304;9.536;2023-09-19T07:33:32;99565.00;;;16.54;70.99
51807;BME280;37865;51.304;9.536;2023-09-19T07:35:57;99570.97;;;16.61;71.44
51807;BME280;37865;51.304;9.536;2023-09-19T07:38:22;99561.94;;;16.56;70.42
51807;BME280;37865;51.304;9.536;2023-09-19T07:40:47;99573.94;;;16.65;70.57
51807;BME280;37865;51.304;9.536;2023-09-19T07:43:13;99565.81;;;16.73;70.46
51807;BME280;37865;51.304;9.536;2023-09-19T07:45:38;99567.16;;;16.76;69.80
51807;BME280;37865;51.304;9.536;2023-09-19T07:48:03;99568.56;;;16.73;68.66
51807;BME280;37865;51.304;9.536;2023-09-19T07:50:29;99567.00;;;16.86;69.16
51807;BME280;37865;51.304;9.536;2023-09-19T07:52:55;99568.97;;;16.99;68.81
51807;BME280;37865;51.304;9.536;2023-09-19T07:55:21;99561.25;;;17.15;67.54
51807;BME280;37865;51.304;9.536;2023-09-19T07:57:50;99548.13;;;17.25;67.30
51807;BME280;37865;51.304;9.536;2023-09-19T08:00:15;99566.91;;;17.37;67.87
51807;BME280;37865;51.304;9.536;2023-09-19T08:02:41;99570.00;;;17.49;67.32
51807;BME280;37865;51.304;9.536;2023-09-19T08:05:07;99568.31;;;17.53;67.12
51807;BME280;37865;51.304;9.536;2023-09-19T08:07:40;99575.91;;;17.42;66.61
51807;BME280;37865;51.304;9.536;2023-09-19T08:10:05;99580.69;;;17.37;67.03
51807;BME280;37865;51.304;9.536;2023-09-19T08:12:38;99573.56;;;17.36;66.92
51807;BME280;37865;51.304;9.536;2023-09-19T08:15:11;99575.50;;;17.49;67.43
51807;BME280;37865;51.304;9.536;2023-09-19T08:17:36;99579.72;;;17.60;67.30
51807;BME280;37865;51.304;9.536;2023-09-19T08:20:01;99573.81;;;17.80;67.10
51807;BME280;37865;51.304;9.536;2023-09-19T08:22:28;99579.63;;;17.92;66.27
51807;BME280;37865;51.304;9.536;2023-09-19T08:24:53;99569.63;;;17.96;64.91
51807;BME280;37865;51.304;9.536;2023-09-19T08:27:18;99569.53;;;17.88;64.53
51807;BME280;37865;51.304;9.536;2023-09-19T08:29:44;99578.13;;;17.86;64.38
51807;BME280;37865;51.304;9.536;2023-09-19T08:32:10;99582.81;;;17.86;64.43
51807;BME280;37865;51.304;9.536;2023-09-19T08:34:35;99596.09;;;17.84;63.83
51807;BME280;37865;51.304;9.536;2023-09-19T08:37:03;99581.69;;;17.73;64.30
51807;BME280;37865;51.304;9.536;2023-09-19T08:39:28;99591.09;;;17.72;63.67
51807;BME280;37865;51.304;9.536;2023-09-19T08:41:59;99588.91;;;17.83;63.66
51807;BME280;37865;51.304;9.536;2023-09-19T08:44:24;99591.50;;;17.93;63.89
51807;BME280;37865;51.304;9.536;2023-09-19T08:46:50;99594.88;;;18.03;63.62
51807;BME280;37865;51.304;9.536;2023-09-19T08:49:33;99597.81;;;18.07;62.78
51807;BME280;37865;51.304;9.536;2023-09-19T08:52:10;99584.75;;;17.99;62.37
51807;BME280;37865;51.304;9.536;2023-09-19T08:54:41;99582.59;;;18.09;61.96
51807;BME280;37865;51.304;9.536;2023-09-19T08:57:07;99586.56;;;18.17;62.30
51807;BME280;37865;51.304;9.536;2023-09-19T08:59:37;99584.59;;;18.31;61.11
51807;BME280;37865;51.304;9.536;2023-09-19T09:02:04;99589.19;;;18.35;60.77
51807;BME280;37865;51.304;9.536;2023-09-19T09:04:29;99594.81;;;18.44;60.24
51807;BME280;37865;51.304;9.536;2023-09-19T09:06:55;99606.44;;;18.41;59.45
51807;BME280;37865;51.304;9.536;2023-09-19T09:09:21;99602.16;;;18.35;59.55
51807;BME280;37865;51.304;9.536;2023-09-19T09:11:48;99611.38;;;18.30;59.36
51807;BME280;37865;51.304;9.536;2023-09-19T09:14:15;99600.41;;;18.39;59.55
51807;BME280;37865;51.304;9.536;2023-09-19T09:16:40;99606.56;;;18.50;59.38
51807;BME280;37865;51.304;9.536;2023-09-19T09:19:05;99592.47;;;18.73;58.63
51807;BME280;37865;51.304;9.536;2023-09-19T09:21:31;99607.03;;;18.65;57.63
51807;BME280;37865;51.304;9.536;2023-09-19T09:24:25;99604.50;;;18.41;57.89
51807;BME280;37865;51.304;9.536;2023-09-19T09:26:46;99608.00;;;18.47;58.02
51807;BME280;37865;51.304;9.536;2023-09-19T09:29:12;99611.47;;;18.39;58.02
51807;BME280;37865;51.304;9.536;2023-09-19T09:31:38;99619.56;;;18.35;57.77
51807;BME280;37865;51.304;9.536;2023-09-19T09:34:04;99611.25;;;18.49;58.29
51807;BME280;37865;51.304;9.536;2023-09-19T09:36:36;99607.34;;;18.64;57.85
51807;BME280;37865;51.304;9.536;2023-09-19T09:39:02;99612.06;;;18.85;57.05
51807;BME280;37865;51.304;9.536;2023-09-19T09:41:40;99612.75;;;18.91;56.23
51807;BME280;37865;51.304;9.536;2023-09-19T09:44:12;99618.50;;;18.94;55.92
51807;BME280;37865;51.304;9.536;2023-09-19T09:46:38;99615.66;;;19.08;55.06
51807;BME280;37865;51.304;9.536;2023-09-19T09:49:25;99608.88;;;19.14;55.26
51807;BME280;37865;51.304;9.536;2023-09-19T09:54:25;99611.09;;;19.25;55.48
51807;BME280;37865;51.304;9.536;2023-09-19T09:59:50;99601.47;;;19.45;54.76
51807;BME280;37865;51.304;9.536;2023-09-19T10:02:16;99600.19;;;19.51;54.60
51807;BME280;37865;51.304;9.536;2023-09-19T10:04:49;99604.38;;;19.71;54.19
51807;BME280;37865;51.304;9.536;2023-09-19T10:07:24;99600.34;;;19.85;53.45
51807;BME280;37865;51.304;9.536;2023-09-19T10:09:51;99602.84;;;19.95;52.56
51807;BME280;37865;51.304;9.536;2023-09-19T10:12:17;99596.38;;;20.09;52.08
51807;BME280;37865;51.304;9.536;2023-09-19T10:14:44;99607.09;;;20.01;51.61
51807;BME280;37865;51.304;9.536;2023-09-19T10:17:12;99591.13;;;20.07;51.93
51807;BME280;37865;51.304;9.536;2023-09-19T10:19:52;99609.41;;;20.17;51.63
51807;BME280;37865;51.304;9.536;2023-09-19T10:22:22;99598.53;;;20.20;51.62
51807;BME280;37865;51.304;9.536;2023-09-19T10:24:49;99608.97;;;20.23;51.55
51807;BME280;37865;51.304;9.536;2023-09-19T10:27:19;99607.53;;;20.43;51.26
51807;BME280;37865;51.304;9.536;2023-09-19T10:29:45;99607.53;;;20.34;50.38
51807;BME280;37865;51.304;9.536;2023-09-19T10:32:15;99608.78;;;20.20;50.07
51807;BME280;37865;51.304;9.536;2023-09-19T10:34:44;99604.06;;;20.20;50.82
51807;BME280;37865;51.304;9.536;2023-09-19T10:37:11;99604.69;;;20.09;50.00
51807;BME280;37865;51.304;9.536;2023-09-19T10:39:37;99601.91;;;20.09;50.32
51807;BME280;37865;51.304;9.536;2023-09-19T10:42:04;99606.97;;;20.15;50.94
51807;BME280;37865;51.304;9.536;2023-09-19T10:44:32;99610.25;;;20.26;51.00
51807;BME280;37865;51.304;9.536;2023-09-19T10:46:57;99598.72;;;20.32;50.78
51807;BME280;37865;51.304;9.536;2023-09-19T10:49:22;99600.53;;;20.37;51.24
51807;BME280;37865;51.304;9.536;2023-09-19T10:51:50;99596.63;;;20.38;50.12
51807;BME280;37865;51.304;9.536;2023-09-19T10:54:19;99613.75;;;20.40;49.85
51807;BME280;37865;51.304;9.536;2023-09-19T10:56:51;99585.25;;;20.48;49.77
51807;BME280;37865;51.304;9.536;2023-09-19T10:59:18;99587.66;;;20.41;50.07
51807;BME280;37865;51.304;9.536;2023-09-19T11:04:34;99587.34;;;20.68;50.28
51807;BME280;37865;51.304;9.536;2023-09-19T11:15:02;99589.00;;;20.52;50.18
51807;BME280;37865;51.304;9.536;2023-09-19T11:30:31;99570.75;;;20.85;48.79
51807;BME280;37865;51.304;9.536;2023-09-19T11:33:17;99576.31;;;21.02;47.00
51807;BME280;37865;51.304;9.536;2023-09-19T11:46:24;99576.13;;;20.73;49.07
51807;BME280;37865;51.304;9.536;2023-09-19T11:48:49;99577.75;;;20.91;48.25
51807;BME280;37865;51.304;9.536;2023-09-19T11:51:15;99571.16;;;21.38;47.90
51807;BME280;37865;51.304;9.536;2023-09-19T11:53:47;99572.06;;;21.59;46.76
51807;BME280;37865;51.304;9.536;2023-09-19T11:56:14;99563.00;;;21.80;45.52
51807;BME280;37865;51.304;9.536;2023-09-19T11:58:40;99557.56;;;21.54;46.27
51807;BME280;37865;51.304;9.536;2023-09-19T12:01:07;99569.56;;;21.20;47.09
51807;BME280;37865;51.304;9.536;2023-09-19T12:03:37;99588.66;;;21.05;47.20
51807;BME280;37865;51.304;9.536;2023-09-19T12:06:15;99571.22;;;20.96;47.63
51807;BME280;37865;51.304;9.536;2023-09-19T12:08:44;99576.28;;;20.76;47.36
51807;BME280;37865;51.304;9.536;2023-09-19T12:11:12;99588.66;;;20.62;47.63
51807;BME280;37865;51.304;9.536;2023-09-19T12:13:41;99570.41;;;20.44;48.02
51807;BME280;37865;51.304;9.536;2023-09-19T12:16:17;99577.06;;;20.43;47.86
51807;BME280;37865;51.304;9.536;2023-09-19T12:18:45;99561.13;;;20.65;46.31
51807;BME280;37865;51.304;9.536;2023-09-19T12:21:30;99553.06;;;21.32;44.94
51807;BME280;37865;51.304;9.536;2023-09-19T12:26:44;99552.03;;;22.71;43.15
51807;BME280;37865;51.304;9.536;2023-09-19T12:29:16;99556.06;;;22.73;42.57
51807;BME280;37865;51.304;9.536;2023-09-19T12:31:51;99547.63;;;23.02;42.49
51807;BME280;37865;51.304;9.536;2023-09-19T12:34:19;99548.72;;;23.55;40.98
51807;BME280;37865;51.304;9.536;2023-09-19T12:36:45;99555.31;;;23.05;41.08
51807;BME280;37865;51.304;9.536;2023-09-19T12:39:10;99552.97;;;22.54;41.87
51807;BME280;37865;51.304;9.536;2023-09-19T12:41:37;99545.00;;;22.44;42.33
51807;BME280;37865;51.304;9.536;2023-09-19T12:44:02;99567.38;;;21.98;43.12
51807;BME280;37865;51.304;9.536;2023-09-19T12:46:33;99557.06;;;21.60;43.78
51807;BME280;37865;51.304;9.536;2023-09-19T12:49:15;99560.25;;;21.42;44.47
51807;BME280;37865;51.304;9.536;2023-09-19T12:51:42;99573.81;;;21.73;44.17
51807;BME280;37865;51.304;9.536;2023-09-19T12:54:08;99557.09;;;21.52;44.54
51807;BME280;37865;51.304;9.536;2023-09-19T12:56:41;99555.00;;;21.32;44.99
51807;BME280;37865;51.304;9.536;2023-09-19T12:59:09;99544.22;;;21.47;45.47
51807;BME280;37865;51.304;9.536;2023-09-19T13:01:38;99553.09;;;21.70;45.44
51807;BME280;37865;51.304;9.536;2023-09-19T13:04:17;99547.03;;;21.85;44.88
51807;BME280;37865;51.304;9.536;2023-09-19T13:06:50;99553.03;;;21.49;45.55
51807;BME280;37865;51.304;9.536;2023-09-19T13:09:16;99553.38;;;21.86;45.17
51807;BME280;37865;51.304;9.536;2023-09-19T13:11:42;99559.69;;;21.48;44.09
51807;BME280;37865;51.304;9.536;2023-09-19T13:16:56;99547.00;;;21.47;45.59
51807;BME280;37865;51.304;9.536;2023-09-19T13:22:02;99545.19;;;21.51;45.37
51807;BME280;37865;51.304;9.536;2023-09-19T13:24:28;99532.13;;;21.52;45.67
51807;BME280;37865;51.304;9.536;2023-09-19T13:26:55;99544.59;;;21.29;46.13
51807;BME280;37865;51.304;9.536;2023-09-19T13:29:20;99542.00;;;21.15;46.48
51807;BME280;37865;51.304;9.536;2023-09-19T13:31:46;99547.03;;;21.30;45.87
51807;BME280;37865;51.304;9.536;2023-09-19T13:34:12;99538.22;;;21.75;44.79
51807;BME280;37865;51.304;9.536;2023-09-19T13:36:39;99530.38;;;21.85;44.91
51807;BME280;37865;51.304;9.536;2023-09-19T13:39:04;99533.13;;;21.47;45.96
51807;BME280;37865;51.304;9.536;2023-09-19T13:41:30;99523.09;;;21.17;46.38
51807;BME280;37865;51.304;9.536;2023-09-19T13:43:56;99532.41;;;20.96;47.02
51807;BME280;37865;51.304;9.536;2023-09-19T13:46:22;99517.94;;;20.81;46.67
51807;BME280;37865;51.304;9.536;2023-09-19T13:48:50;99533.25;;;20.79;46.77
51807;BME280;37865;51.304;9.536;2023-09-19T13:51:17;99523.19;;;21.38;45.35
51807;BME280;37865;51.304;9.536;2023-09-19T13:53:44;99515.47;;;22.39;43.22
51807;BME280;37865;51.304;9.536;2023-09-19T13:56:09;99514.16;;;22.16;42.71
51807;BME280;37865;51.304;9.536;2023-09-19T13:58:34;99515.63;;;21.55;44.01
51807;BME280;37865;51.304;9.536;2023-09-19T14:01:00;99526.44;;;21.40;45.15
51807;BME280;37865;51.304;9.536;2023-09-19T14:03:25;99520.75;;;21.74;44.10
51807;BME280;37865;51.304;9.536;2023-09-19T14:05:53;99515.72;;;22.88;42.28